• Join FlightAware (Why Join?)
  • Login
  • US Flag 
12:06PM EDT


 

Airport Tracker/Info


-or-


 

Live Flight TrackerFlight Track Log ✈ AWE1092 ✈ 18-Apr-2013 ✈ KMHT - KPHL

Flight Track Log - Related Links

Times and Time Zones

All times are in EDT time to prevent confusion due to time zone crossing. See the AWE1092 flight status page for this flight to view local times or setup timezone preferences in your user account.

Time Position Orientation Groundspeed Altitude Reporting Facility
EDT Latitude Longitude Course Direction KTS MPH feet Rate Location/Type
07:28AM 42.9500 -71.4167 273° West 148 170 1,000  Level KA90
07:29AM 43.0311 -71.3864 15° North 207 238 4,200 2,580 Climbing Boston Center
07:30AM 42.9500 -71.9208 270° West  Level FlightAware Approximate
07:30AM 43.0878 -71.4081 344° North 212 244 7,700  Level Boston Center
07:31AM 42.9501 -72.0847 270° West  Level FlightAware Approximate
07:31AM 43.1319 -71.4700 314° West 236 272 9,800  Level Boston Center
07:32AM 42.9514 -72.2486 273° West  Level FlightAware Approximate
07:32AM 43.1097 -71.5528 250° West 230 265 13,200  Level Boston Center
07:33AM 42.9583 -72.4123 273° West  Level FlightAware Approximate
07:33AM 43.0856 -71.6583 253° West 257 296 16,500  Level Boston Center
07:34AM 43.0631 -71.7439 250° West 271 312 18,300 1,440 Climbing Boston Center
07:35AM 43.0325 -71.8606 250° West 285 328 19,500 840 Climbing Boston Center
07:36AM 42.9997 -71.9917 251° West 323 372 20,000 240 Climbing Boston Center
07:37AM 42.9647 -72.1281 251° West 364 419 20,000  Level Boston Center
07:38AM 42.9297 -72.2642 251° West 382 440 20,000  Level Boston Center
07:39AM 42.8964 -72.4003 252° West 382 440 20,000  Level Boston Center
07:40AM 42.8714 -72.5108 253° West 382 440 20,000  Level Boston Center
07:41AM 42.8169 -72.6694 245° Southwest 387 445 20,000  Level Boston Center
07:42AM 42.7792 -72.8136 250° West 392 451 20,000  Level Boston Center
07:43AM 42.7431 -72.9433 249° West 392 451 20,000  Level Boston Center
07:44AM 42.7092 -73.0928 253° West 399 459 20,000  Level Boston Center
07:45AM 42.6728 -73.2281 250° West 399 459 20,000  Level Boston Center
07:46AM 42.6386 -73.3517 249° West 399 459 20,000  Level Boston Center
07:47AM 42.5997 -73.4864 249° West 389 448 20,000  Level Boston Center
07:48AM 42.5611 -73.6211 249° West 389 448 20,000 -240 Level Boston Center
07:49AM 42.5242 -73.7556 250° West 397 457 19,600 -540 Descending Boston Center
07:50AM 42.4850 -73.8817 247° West 377 434 19,000 -600 Descending Boston Center
07:51AM 42.4478 -74.0214 250° West 369 425 18,400 -660 Descending Boston Center
07:52AM 42.4147 -74.1358 249° West 364 419 17,800 -900 Descending Boston Center
07:53AM 42.3772 -74.2697 249° West 364 419 16,700 -840 Descending Boston Center
07:54AM 42.3442 -74.3811 248° West 357 411 16,200 -360 Descending Boston Center
07:55AM 42.3064 -74.5203 250° West 357 411 16,000 -180 Descending Boston Center
07:56AM 42.2706 -74.6456 249° West 357 411 15,900 -60 Descending Boston Center
07:58AM 42.1928 -74.9050 248° West 352 405 15,900  Level New York Center
07:59AM 42.1372 -75.0022 232° Southwest 359 413 15,900 -60 Level New York Center
08:00AM 42.0369 -75.0767 209° Southwest 359 413 15,800 -300 Descending New York Center
08:01AM 41.9511 -75.1464 211° Southwest 371 427 15,300 -900 Descending New York Center
08:02AM 41.8758 -75.2083 212° Southwest 376 433 14,000 -1,320 Descending New York Center
08:03AM 41.7900 -75.2778 211° Southwest 371 427 12,800 -1,020 Descending New York Center
08:04AM 41.6975 -75.3519 211° Southwest 366 421 12,000 -480 Descending New York Center
08:05AM 41.6117 -75.4211 211° Southwest 366 421 11,900  Descending New York Center
08:06AM 41.5256 -75.4897 211° Southwest 366 421 12,000  Climbing New York Center
08:07AM 41.4503 -75.5508 211° Southwest 366 421 11,900  Descending New York Center
08:08AM 41.3642 -75.6194 211° Southwest 366 421 12,000  Climbing New York Center
08:09AM 41.2656 -75.6842 206° Southwest 366 421 11,900 -180 Descending New York Center
08:10AM 41.1697 -75.6881 182° South 350 403 11,700 -600 Descending New York Center
08:11AM 41.0842 -75.6875 180° South 328 377 10,700 -900 Descending New York Center
08:12AM 41.0114 -75.6878 180° South 298 343 9,900 -360 Descending New York Center
08:13AM 40.9258 -75.6869 180° South 287 330 10,000  Climbing New York Center
08:14AM 40.8469 -75.6867 180° South 287 330 10,000  Level New York Center
08:15AM 40.7761 -75.6844 179° South 292 336 10,000  Level New York Center
08:16AM 40.6989 -75.6844 180° South 292 336 10,000 -60 Level New York Center
08:17AM 40.6136 -75.6836 180° South 292 336 9,900  Descending New York Center
08:19AM 40.5356 -75.5958 139° Southeast 304 350 10,000 60 Climbing FAA TRACON SMA TRACON (SMA)
08:19AM 40.5214 -75.5672 123° Southeast 303 349 10,000  Level FAA TRACON SMA TRACON (SMA)
08:19AM 40.5064 -75.5392 125° Southeast 304 350 10,000  Level FAA TRACON SMA TRACON (SMA)
08:20AM 40.4917 -75.5108 124° Southeast 304 350 10,000  Level FAA TRACON SMA TRACON (SMA)
08:20AM 40.4736 -75.4753 124° Southeast 304 350 10,000  Level FAA TRACON SMA TRACON (SMA)
08:20AM 40.4589 -75.4478 125° Southeast 301 346 10,000  Level FAA TRACON SMA TRACON (SMA)
08:21AM 40.4425 -75.4278 137° Southeast 297 342 10,000 -180 Level FAA TRACON SMA TRACON (SMA)
08:21AM 40.4108 -75.4089 156° South 295 339 9,900 -480 Descending FAA TRACON SMA TRACON (SMA)
08:21AM 40.3883 -75.3956 156° South 291 335 9,700 -780 Descending FAA TRACON SMA TRACON (SMA)
08:22AM 40.3681 -75.3833 155° Southeast 291 335 9,400 -1,080 Descending FAA TRACON SMA TRACON (SMA)
08:22AM 40.3375 -75.3667 157° South 289 333 9,000 -1,080 Descending FAA TRACON SMA TRACON (SMA)
08:22AM 40.3147 -75.3528 155° Southeast 289 333 8,700 -900 Descending FAA TRACON SMA TRACON (SMA)
08:23AM 40.2950 -75.3406 155° Southeast 286 329 8,400 -1,080 Descending FAA TRACON SMA TRACON (SMA)
08:23AM 40.2644 -75.3303 166° South 275 316 8,000 -1,080 Descending FAA TRACON SMA TRACON (SMA)
08:23AM 40.2428 -75.3378 195° South 276 318 7,700 -900 Descending FAA TRACON SMA TRACON (SMA)
08:24AM 40.2292 -75.3550 224° Southwest 250 288 7,400 -780 Descending FAA TRACON SMA TRACON (SMA)
08:24AM 40.2144 -75.3869 239° Southwest 248 285 7,200 -480 Descending FAA TRACON SMA TRACON (SMA)
08:24AM 40.2044 -75.4078 238° Southwest 231 266 7,100 -300 Descending FAA TRACON SMA TRACON (SMA)
08:25AM 40.1961 -75.4256 238° Southwest 224 258 7,000 -180 Descending FAA TRACON SMA TRACON (SMA)
08:25AM 40.1831 -75.4539 239° Southwest 212 244 7,000  Level FAA TRACON SMA TRACON (SMA)
08:25AM 40.1714 -75.4717 229° Southwest 218 251 7,000 -180 Level FAA TRACON SMA TRACON (SMA)
08:26AM 40.1553 -75.4744 188° South 222 255 6,900 -180 Descending FAA TRACON SMA TRACON (SMA)
08:26AM 40.1322 -75.4597 154° Southeast 232 267 6,900 -480 Level FAA TRACON SMA TRACON (SMA)
08:26AM 40.1144 -75.4492 156° South 224 258 6,600 -900 Descending FAA TRACON SMA TRACON (SMA)
08:27AM 40.0994 -75.4381 150° Southeast 224 258 6,300 -900 Descending FAA TRACON SMA TRACON (SMA)
08:27AM 40.0758 -75.4256 158° South 220 253 6,000 -480 Descending FAA TRACON SMA TRACON (SMA)
08:27AM 40.0581 -75.4169 160° South 223 257 6,000  Level FAA TRACON SMA TRACON (SMA)
08:28AM 40.0403 -75.4117 167° South 216 249 6,000  Level FAA TRACON SMA TRACON (SMA)
08:28AM 40.0181 -75.4047 167° South 213 245 6,000 -180 Level FAA TRACON SMA TRACON (SMA)
08:28AM 40.0000 -75.4006 170° South 213 245 5,900  Descending FAA TRACON SMA TRACON (SMA)
08:29AM 39.9825 -75.3939 164° South 214 246 6,000  Climbing FAA TRACON SMA TRACON (SMA)
08:29AM 39.9600 -75.3872 167° South 215 247 5,900  Descending FAA TRACON SMA TRACON (SMA)
08:29AM 39.9428 -75.3914 191° South 197 227 6,000  Climbing FAA TRACON SMA TRACON (SMA)
08:30AM 39.9283 -75.4117 227° Southwest 196 226 5,900 -180 Descending FAA TRACON SMA TRACON (SMA)
08:30AM 39.9239 -75.4300 252° West 181 208 5,900 120 Level FAA TRACON SMA TRACON (SMA)
08:30AM 39.9194 -75.4497 254° West 180 207 6,000 120 Climbing FAA TRACON SMA TRACON (SMA)
08:31AM 39.9142 -75.4733 254° West 179 206 6,000  Level FAA TRACON SMA TRACON (SMA)
08:31AM 39.9094 -75.4925 252° West 179 206 6,000  Level FAA TRACON SMA TRACON (SMA)
08:31AM 39.9050 -75.5117 253° West 180 207 6,000  Level FAA TRACON SMA TRACON (SMA)
08:32AM 39.9000 -75.5356 255° West 178 205 6,000  Level FAA TRACON SMA TRACON (SMA)
08:32AM 39.8961 -75.5553 256° West 180 207 6,000  Level FAA TRACON SMA TRACON (SMA)
08:32AM 39.8922 -75.5747 255° West 181 208 6,000  Level FAA TRACON SMA TRACON (SMA)
08:33AM 39.8872 -75.5992 255° West 182 209 6,000  Level FAA TRACON SMA TRACON (SMA)
08:33AM 39.8833 -75.6186 255° West 181 208 6,000  Level FAA TRACON SMA TRACON (SMA)
08:33AM 39.8792 -75.6378 254° West 182 209 6,000  Level FAA TRACON SMA TRACON (SMA)
08:34AM 39.8739 -75.6628 255° West 182 209 6,000  Level FAA TRACON SMA TRACON (SMA)
08:34AM 39.8697 -75.6819 254° West 181 208 6,000  Level FAA TRACON SMA TRACON (SMA)
08:34AM 39.8658 -75.7014 255° West 182 209 6,000  Level FAA TRACON SMA TRACON (SMA)
08:35AM 39.8614 -75.7236 255° West 182 209 6,000 -480 Level FAA TRACON SMA TRACON (SMA)
08:35AM 39.8561 -75.7442 252° West 181 208 5,700 -960 Descending FAA TRACON SMA TRACON (SMA)
08:35AM 39.8522 -75.7647 256° West 182 209 5,400 -900 Descending FAA TRACON SMA TRACON (SMA)
08:36AM 39.8369 -75.7767 211° Southwest 176 203 5,100 -600 Descending FAA TRACON SMA TRACON (SMA)
08:36AM 39.8217 -75.7783 185° South 166 191 5,000 -480 Descending FAA TRACON SMA TRACON (SMA)
08:36AM 39.8075 -75.7794 183° South 165 190 4,800 -960 Descending FAA TRACON SMA TRACON (SMA)
08:37AM 39.7919 -75.7669 148° Southeast 172 198 4,400 -1,080 Descending FAA TRACON SMA TRACON (SMA)
08:37AM 39.7878 -75.7450 104° East 195 224 4,100 -600 Descending FAA TRACON SMA TRACON (SMA)
08:37AM 39.7853 -75.7239 99° East 194 223 4,000 -180 Descending FAA TRACON SMA TRACON (SMA)
08:38AM 39.7814 -75.6983 101° East 188 216 4,000 -180 Level FAA TRACON SMA TRACON (SMA)
08:38AM 39.7797 -75.6778 96° East 187 215 3,900  Descending FAA TRACON SMA TRACON (SMA)
08:38AM 39.7828 -75.6569 79° East 194 223 4,000  Climbing FAA TRACON SMA TRACON (SMA)
08:39AM 39.7886 -75.6317 73° East 189 217 3,900 -480 Descending FAA TRACON SMA TRACON (SMA)
08:39AM 39.7931 -75.6117 74° East 186 214 3,700 -600 Descending FAA TRACON SMA TRACON (SMA)
08:39AM 39.7972 -75.5917 75° East 187 215 3,500 -600 Descending FAA TRACON SMA TRACON (SMA)
08:40AM 39.8022 -75.5667 75° East 186 214 3,300 -660 Descending FAA TRACON SMA TRACON (SMA)
08:40AM 39.8058 -75.5472 76° East 182 209 3,100 -480 Descending FAA TRACON SMA TRACON (SMA)
08:40AM 39.8100 -75.5281 74° East 179 206 3,000 -480 Descending FAA TRACON SMA TRACON (SMA)
08:41AM 39.8142 -75.5064 76° East 170 196 2,800 -480 Descending FAA TRACON SMA TRACON (SMA)
08:41AM 39.8178 -75.4883 75° East 167 192 2,700 -300 Descending FAA TRACON SMA TRACON (SMA)
08:41AM 39.8214 -75.4706 75° East 166 191 2,600 -300 Descending FAA TRACON SMA TRACON (SMA)
08:42AM 39.8258 -75.4489 75° East 167 192 2,500 -300 Descending FAA TRACON SMA TRACON (SMA)
08:42AM 39.8294 -75.4297 76° East 169 194 2,400 -480 Descending FAA TRACON SMA TRACON (SMA)
08:42AM 39.8333 -75.4111 75° East 170 196 2,200 -600 Descending FAA TRACON SMA TRACON (SMA)